Alton, Virginia
Current Conditions -  °F | °C
As of 9:15 AM on Friday 24 Oct 2014 (Local Time) from KW78 Reporting Station
Clear Clear  
Wind Chill: 52°   Ceiling: Unl
Heat Index: 52°   Visibility: 10mi
Dew Point: 44°   Wind: 5mph
Humidity: 72%   Direction: 340°NNW
Pressure: 30.04"   Gusts: NA
Location:  36.57°N, 79°W
Report Text: KW78 241315Z AUTO 34004KT 10SM CLR 11/06 A3004 RMK AO1 T01120064
Loading
Personal Weather Stations






























Interactive Weather Map
Tropical Storm Tracking
New forecast layout! Learn more

10-Day Weather Forecast

Advertisements
Track Severe Weather on mobile